Weather at Ioannis Kapodistrias International Airport

Public forecast

Using degrees Celsius for public forecast. Weather courtesy of forecast.io.

Current aviation weather report (METAR) for Ioannis Kapodistrias International Airport

Report is more than 6 hours old.

2022/11/14 15:20 (retrieved 2 years ago)

LGKR 141520Z 15005KT 9999 SCT020 SCT030 19/15 Q1022 NOSIG

Aviation forecast (TAF) for Ioannis Kapodistrias International Airport

Forecast is more than 12 hours old.

2023/02/22 18:13 (retrieved 1 year ago)

TAF LGKR 221700Z 2218/2318 VRB05KT 9999 SCT018 PROB40 2222/2306 3000 BR SCT006